Hlavní strana
METAR-TAF:

METAR-TAF

Letiště :

Armenia, Kolumbie

zeměpisná šířka: 04-30N, zeměpisná délka: 075-43W, výška: 1204 m

Aktuální stav počasí

Zpráva byla vytvořena před 13 hodinami a 24 minutami, v 19:00 UTC
Východoseverovýchodní vítr 5 kt
Teplota 27°C
Vlhkost vzduchu 70%
Tlak 1018 hPa
Viditelnost 10 km a více
Skoro jasno ve výšce 1700 ft, Cumulonimbus.
Oblačno až skoro zataženo ve výšce 2200 ft
přeháňky v blízkosti

METAR: SKAR 291900Z 06005KT 9999 VCSH FEW017CB BKN022 27/21 A3005 RMK CB VCSH/NE

Čas: 03:24 (08:24 UTC)


TAF: chybějící

Stav a předpovědi počasí z více než 4 000 letišť (zprávy METAR a TAF).

Červené a žluté tečky na mapě představují dostupné meteorologické stanice.

Když kurzor umístíte na tečku, zobrazí se název stanice.

Pak kliknutím zobrazíte stav a předpověď počasí.

Chcete-li změnit mapu, kliknutím na zelené tlačítko se znaménkem +mapu přiblížíte, kliknutím na zelené tlačítko se znaménkem – mapu oddálíte a kliknutím na zelené šipky přejdete na sousední mapy.


METAR-TAF: